Time;durP1;ratioP1;P1;durP2;ratioP2;P2;SDS_P1;SDS_P2;PMS_P1;PMS_P2;Temp;Humidity;BMP_temperature;BMP_pressure;BME280_temperature;BME280_humidity;BME280_pressure;Samples;Min_cycle;Max_cycle;Signal;HPM_P1;HPM_P2
2021/11/14 00:02:13;;;;;;;8.65;6.20;;;;;;;7.89;99.67;99196.25;2002305;78;24510;-78
2021/11/14 00:05:16;;;;;;;10.43;6.61;;;;;;;7.89;99.59;99202.28;2005460;81;20332;-78
2021/11/14 00:08:20;;;;;;;10.86;6.91;;;;;;;7.91;99.64;99196.28;2004801;80;20339;-78
2021/11/14 00:11:23;;;;;;;11.21;7.97;;;;;;;7.91;99.63;99197.13;2005284;81;20317;-78
2021/11/14 00:14:25;;;;;;;13.06;9.54;;;;;;;7.95;99.75;99196.28;2004641;81;20827;-78
2021/11/14 00:17:28;;;;;;;12.13;8.96;;;;;;;7.96;99.88;99198.00;1998606;77;22754;-78
2021/11/14 00:20:31;;;;;;;13.91;9.43;;;;;;;7.98;100.00;99193.69;1999288;80;20353;-78
2021/11/14 00:23:34;;;;;;;13.55;8.61;;;;;;;8.03;100.00;99193.72;1999515;80;20409;-78
2021/11/14 00:26:38;;;;;;;15.20;8.69;;;;;;;8.05;100.00;99187.69;1999578;80;20362;-78
2021/11/14 00:29:40;;;;;;;12.93;7.95;;;;;;;8.06;100.00;99189.41;1999697;80;20337;-78
2021/11/14 00:35:53;;;;;;;12.20;7.88;;;;;;;8.06;100.00;99184.22;2026127;70;20462;-78
2021/11/14 00:38:57;;;;;;;10.86;7.53;;;;;;;8.06;99.99;99185.94;2025268;80;20396;-78
2021/11/14 00:41:59;;;;;;;9.54;7.24;;;;;;;8.06;99.97;99189.41;2024936;80;20420;-78
2021/11/14 00:45:03;;;;;;;9.19;6.99;;;;;;;8.08;100.00;99189.44;2023675;80;20337;-78
2021/11/14 00:48:06;;;;;;;8.79;7.15;;;;;;;8.09;100.00;99193.75;2025380;77;21889;-77
2021/11/14 00:51:12;;;;;;;9.63;7.34;;;;;;;8.10;100.00;99188.56;2021386;80;20329;-78
2021/11/14 00:54:15;;;;;;;9.24;7.01;;;;;;;8.12;100.00;99185.97;2022044;80;20859;-78
2021/11/14 00:57:18;;;;;;;8.36;6.40;;;;;;;8.13;100.00;99188.56;2024616;80;20455;-78
2021/11/14 01:00:24;;;;;;;11.16;7.06;;;;;;;8.13;100.00;99180.81;2023264;78;28553;-78
2021/11/14 01:03:27;;;;;;;7.24;6.13;;;;;;;8.14;100.00;99184.25;2025006;80;20312;-77
2021/11/14 01:06:29;;;;;;;9.95;7.18;;;;;;;8.15;100.00;99180.81;2023854;80;20319;-78
2021/11/14 01:09:32;;;;;;;10.06;6.86;;;;;;;8.16;100.00;99187.72;2029005;80;21162;-77
2021/11/14 01:12:35;;;;;;;9.44;7.51;;;;;;;8.16;100.00;99185.97;2024364;80;20349;-78
2021/11/14 01:15:39;;;;;;;10.30;7.70;;;;;;;8.15;100.00;99179.09;2022448;78;27684;-77
2021/11/14 01:18:41;;;;;;;8.10;6.57;;;;;;;8.17;100.00;99184.25;2025713;80;20371;-78
2021/11/14 01:21:46;;;;;;;7.35;5.74;;;;;;;8.15;100.00;99185.97;2017092;80;20424;-78
2021/11/14 01:24:49;;;;;;;7.50;6.10;;;;;;;8.16;100.00;99185.13;2025620;80;20346;-78
2021/11/14 01:27:52;;;;;;;6.96;5.03;;;;;;;8.15;100.00;99191.16;2024900;80;20334;-78
2021/11/14 01:30:56;;;;;;;6.31;5.65;;;;;;;8.17;100.00;99190.28;2023267;77;28944;-78
2021/11/14 01:34:00;;;;;;;6.28;5.43;;;;;;;8.20;100.00;99189.44;2024615;80;20521;-78
2021/11/14 01:37:03;;;;;;;8.06;5.46;;;;;;;8.22;100.00;99198.06;2025306;80;20407;-78
2021/11/14 01:40:07;;;;;;;5.36;4.85;;;;;;;8.22;100.00;99199.78;2024555;80;20320;-78
2021/11/14 01:43:14;;;;;;;6.38;4.88;;;;;;;8.21;100.00;99201.50;2023791;80;20300;-79
2021/11/14 01:46:18;;;;;;;6.03;5.07;;;;;;;8.21;100.00;99205.81;2011689;77;23752;-78
2021/11/14 01:49:21;;;;;;;7.50;5.65;;;;;;;8.22;100.00;99204.94;2022162;80;20475;-79
2021/11/14 01:52:30;;;;;;;8.66;5.96;;;;;;;8.24;100.00;99205.81;2023290;80;21223;-78
2021/11/14 01:55:35;;;;;;;8.85;5.85;;;;;;;8.26;100.00;99198.91;2019751;80;20379;-78
2021/11/14 01:58:39;;;;;;;8.73;5.57;;;;;;;8.26;100.00;99197.22;2024465;80;20328;-79
2021/11/14 02:01:42;;;;;;;8.74;6.56;;;;;;;8.27;100.00;99195.50;2029350;79;21224;-79
2021/11/14 02:04:46;;;;;;;10.09;6.82;;;;;;;8.28;100.00;99205.84;2025630;79;20330;-79
2021/11/14 02:07:56;;;;;;;8.10;6.38;;;;;;;8.27;100.00;99193.78;2024933;80;20407;-79
2021/11/14 02:10:58;;;;;;;8.07;5.79;;;;;;;8.27;100.00;99190.31;2028660;80;20352;-79
2021/11/14 02:14:01;;;;;;;6.96;5.16;;;;;;;8.26;100.00;99196.34;2025762;79;20179;-79
2021/11/14 02:17:06;;;;;;;8.84;5.59;;;;;;;8.29;100.00;99196.38;2013262;77;25968;-79
2021/11/14 02:20:11;;;;;;;6.49;5.14;;;;;;;8.31;100.00;99195.50;2023569;80;20408;-78
2021/11/14 02:23:18;;;;;;;8.84;6.79;;;;;;;8.32;100.00;99197.22;2023682;80;20682;-79
2021/11/14 02:26:23;;;;;;;14.44;9.00;;;;;;;8.32;100.00;99194.63;2023408;80;20399;-79
2021/11/14 02:29:26;;;;;;;8.90;5.97;;;;;;;8.33;100.00;99198.94;2027652;80;20327;-79
2021/11/14 02:32:32;;;;;;;8.61;5.89;;;;;;;8.34;100.00;99199.84;2022727;77;29327;-79
2021/11/14 02:36:01;;;;;;;9.01;5.76;;;;;;;8.34;100.00;99202.44;2024925;80;20336;-79
2021/11/14 02:39:06;;;;;;;7.70;5.49;;;;;;;8.34;100.00;99203.28;2023273;80;20879;-79
2021/11/14 02:42:09;;;;;;;8.55;5.96;;;;;;;8.35;100.00;99196.41;2025378;80;20333;-79
2021/11/14 02:45:15;;;;;;;15.16;6.18;;;;;;;8.33;100.00;99198.09;2015697;80;20347;-79
2021/11/14 02:48:19;;;;;;;10.31;6.39;;;;;;;8.33;100.00;99198.09;2024272;80;20304;-78
2021/11/14 02:51:25;;;;;;;7.61;5.91;;;;;;;8.33;100.00;99203.25;2016307;80;20923;-78
2021/11/14 02:54:28;;;;;;;8.50;5.16;;;;;;;8.34;100.00;99199.84;2023759;80;20989;-79
2021/11/14 02:57:32;;;;;;;7.81;5.72;;;;;;;8.34;100.00;99198.13;2017644;80;20352;-79
2021/11/14 03:00:44;;;;;;;6.54;5.51;;;;;;;8.36;100.00;99203.28;2022932;80;20355;-79
2021/11/14 03:03:49;;;;;;;;;;;;;;;8.37;100.00;99197.25;2022072;80;20434;-79
2021/11/14 03:06:54;;;;;;;6.00;5.40;;;;;;;8.37;100.00;99197.25;2021303;80;20979;-79
2021/11/14 03:09:57;;;;;;;6.69;5.19;;;;;;;8.38;100.00;99204.16;2025313;80;20396;-78
2021/11/14 03:13:04;;;;;;;7.89;5.25;;;;;;;8.37;100.00;99203.28;2025012;80;20376;-78
2021/11/14 03:16:10;;;;;;;9.93;5.57;;;;;;;8.37;100.00;99205.88;2025607;77;26009;-78
2021/11/14 03:19:13;;;;;;;10.68;6.41;;;;;;;8.38;100.00;99205.00;2030742;79;20894;-79
2021/11/14 03:22:16;;;;;;;8.44;5.76;;;;;;;8.37;100.00;99199.84;2029969;79;20299;-78
2021/11/14 03:25:21;;;;;;;7.93;5.76;;;;;;;8.37;100.00;99202.44;2032410;79;20415;-78
2021/11/14 03:28:25;;;;;;;9.10;5.89;;;;;;;8.38;100.00;99204.16;2021117;79;20358;-78
2021/11/14 03:31:30;;;;;;;10.09;5.21;;;;;;;8.37;100.00;99203.28;2027019;79;20369;-78
2021/11/14 03:34:33;;;;;;;9.69;5.34;;;;;;;8.38;100.00;99206.75;2026258;80;20361;-75
2021/11/14 03:37:35;;;;;;;8.35;5.44;;;;;;;8.39;100.00;99208.47;2025783;80;20425;-76
2021/11/14 03:40:38;;;;;;;6.66;4.97;;;;;;;8.40;100.00;99203.28;2025344;80;20323;-76
2021/11/14 03:43:42;;;;;;;8.98;5.18;;;;;;;8.41;100.00;99210.19;2026096;80;20801;-75
2021/11/14 03:46:45;;;;;;;7.05;5.36;;;;;;;8.42;100.00;99213.63;2024285;77;20599;-76
2021/11/14 03:49:48;;;;;;;7.10;5.36;;;;;;;8.41;100.00;99210.19;2025984;80;20337;-78
2021/11/14 03:52:51;;;;;;;7.75;5.59;;;;;;;8.42;100.00;99219.69;2025391;80;20340;-78
2021/11/14 03:55:53;;;;;;;5.57;4.96;;;;;;;8.43;100.00;99224.00;2025995;80;20332;-78
2021/11/14 03:58:56;;;;;;;6.41;5.16;;;;;;;8.44;100.00;99217.13;2027332;80;21211;-78
2021/11/14 04:02:00;;;;;;;8.79;6.10;;;;;;;8.43;100.00;99216.22;2024425;77;22057;-78
2021/11/14 04:05:03;;;;;;;7.76;5.41;;;;;;;8.44;100.00;99225.75;2025777;80;20712;-79
2021/11/14 04:08:13;;;;;;;8.74;5.19;;;;;;;8.45;100.00;99218.84;2026501;80;20385;-78
2021/11/14 04:11:15;;;;;;;6.45;5.30;;;;;;;8.46;100.00;99228.31;2025251;80;20353;-78
2021/11/14 04:14:18;;;;;;;6.60;4.54;;;;;;;8.43;100.00;99229.16;2026412;80;20475;-78
2021/11/14 04:17:21;;;;;;;7.63;5.20;;;;;;;8.44;100.00;99230.06;2028462;77;29416;-78
2021/11/14 04:20:25;;;;;;;5.53;4.99;;;;;;;8.43;100.00;99233.47;2031123;79;20166;-78
2021/11/14 04:23:28;;;;;;;6.35;4.89;;;;;;;8.43;100.00;99228.28;2034256;79;20319;-78
2021/11/14 04:26:31;;;;;;;6.72;5.74;;;;;;;8.42;100.00;99236.91;2027264;79;20363;-78
2021/11/14 04:29:34;;;;;;;7.05;5.19;;;;;;;8.42;100.00;99237.78;2030907;79;20340;-78
2021/11/14 04:32:36;;;;;;;5.43;4.66;;;;;;;8.45;100.00;99239.53;2028917;77;30279;-78
2021/11/14 04:35:40;;;;;;;9.84;6.75;;;;;;;8.45;100.00;99245.59;2029641;79;20348;-78
2021/11/14 04:38:43;;;;;;;12.59;7.86;;;;;;;8.50;100.00;99242.13;2026262;79;20338;-78
2021/11/14 04:41:45;;;;;;;7.00;6.32;;;;;;;8.58;100.00;99248.16;2031211;79;20376;-78
2021/11/14 04:44:48;;;;;;;8.63;5.84;;;;;;;8.59;100.00;99245.56;2030778;79;20339;-79
2021/11/14 04:47:51;;;;;;;6.03;5.41;;;;;;;8.64;100.00;99243.88;2021260;77;21548;-79
2021/11/14 04:50:53;;;;;;;5.89;4.45;;;;;;;8.70;100.00;99249.03;2025727;80;20303;-78
2021/11/14 04:53:56;;;;;;;5.69;4.78;;;;;;;8.75;100.00;99251.63;2017638;80;20816;-78
2021/11/14 04:56:59;;;;;;;5.76;4.69;;;;;;;8.77;100.00;99261.13;2025193;80;20841;-78
2021/11/14 05:00:08;;;;;;;7.18;4.79;;;;;;;8.76;100.00;99259.41;2016791;80;20404;-78
2021/11/14 05:03:12;;;;;;;6.45;4.60;;;;;;;8.77;100.00;99263.72;2020279;77;26262;-78
2021/11/14 05:06:15;;;;;;;7.25;5.45;;;;;;;8.79;100.00;99258.53;2021053;80;20369;-77
2021/11/14 05:09:18;;;;;;;3.84;3.17;;;;;;;8.81;100.00;99266.31;2024038;80;20312;-77
2021/11/14 05:12:20;;;;;;;3.49;3.16;;;;;;;8.80;100.00;99265.47;2024746;80;20861;-77
2021/11/14 05:15:23;;;;;;;2.33;2.13;;;;;;;8.79;100.00;99268.88;2022248;77;26511;-77
2021/11/14 05:18:26;;;;;;;2.11;1.64;;;;;;;8.78;100.00;99268.03;2024063;80;20393;-77
2021/11/14 05:21:28;;;;;;;2.08;1.34;;;;;;;8.78;99.84;99274.94;2024287;80;20400;-78
2021/11/14 05:24:31;;;;;;;0.98;0.98;;;;;;;8.76;99.68;99282.69;2024051;80;20357;-77
2021/11/14 05:27:34;;;;;;;0.76;0.73;;;;;;;8.74;99.48;99281.84;2025180;80;20296;-77
2021/11/14 05:30:36;;;;;;;0.90;0.70;;;;;;;8.71;99.14;99284.41;2022763;77;27048;-77
2021/11/14 05:33:39;;;;;;;0.60;0.60;;;;;;;8.70;99.20;99289.59;2023866;80;20810;-77
2021/11/14 05:36:44;;;;;;;0.60;0.60;;;;;;;8.68;99.12;99293.91;2024294;80;20470;-77
2021/11/14 05:39:46;;;;;;;0.50;0.50;;;;;;;8.64;98.90;99293.06;2025103;80;20779;-77
2021/11/14 05:42:49;;;;;;;0.60;0.60;;;;;;;8.63;98.89;99293.06;2024046;80;20845;-78
2021/11/14 05:45:51;;;;;;;0.40;0.40;;;;;;;8.59;98.74;99293.88;2022934;77;24235;-78
2021/11/14 05:48:54;;;;;;;1.17;0.50;;;;;;;8.56;98.68;99299.91;2024912;80;20395;-77
2021/11/14 05:51:57;;;;;;;0.50;0.50;;;;;;;8.55;98.60;99310.28;2023962;80;20337;-78
2021/11/14 05:55:00;;;;;;;0.91;0.50;;;;;;;8.52;98.52;99312.84;2021019;80;21193;-77
2021/11/14 05:58:08;;;;;;;1.80;0.60;;;;;;;8.50;98.44;99312.00;2024286;80;20327;-78
2021/11/14 06:01:19;;;;;;;1.55;0.50;;;;;;;8.48;98.33;99307.69;2023821;77;35335;-78
2021/11/14 06:04:46;;;;;;;2.10;0.57;;;;;;;8.46;98.33;99317.16;2024705;80;20644;-78
2021/11/14 06:07:49;;;;;;;2.05;0.69;;;;;;;8.45;98.19;99324.94;2024638;80;20343;-78
2021/11/14 06:10:53;;;;;;;0.50;0.50;;;;;;;8.43;98.13;99318.84;2024072;80;20826;-77
2021/11/14 06:13:57;;;;;;;0.55;0.55;;;;;;;8.42;98.04;99330.94;2024609;80;20335;-78
2021/11/14 06:17:00;;;;;;;0.65;0.40;;;;;;;8.43;97.99;99329.19;2026547;77;22067;-78
2021/11/14 06:20:05;;;;;;;0.40;0.40;;;;;;;8.41;97.65;99336.09;2029627;80;20318;-77
2021/11/14 06:23:08;;;;;;;0.46;0.46;;;;;;;8.38;97.65;99334.38;2029916;79;20387;-77
2021/11/14 06:26:10;;;;;;;0.50;0.50;;;;;;;8.37;97.33;99349.88;2029232;80;20328;-77
2021/11/14 06:29:13;;;;;;;0.50;0.50;;;;;;;8.34;97.27;99340.41;2029689;80;20391;-77
2021/11/14 06:32:16;;;;;;;0.60;0.50;;;;;;;8.32;97.12;99349.84;2024063;77;23951;-77
2021/11/14 06:35:18;;;;;;;1.40;0.51;;;;;;;8.31;96.89;99353.28;2014538;80;20409;-77
2021/11/14 06:38:21;;;;;;;0.91;0.64;;;;;;;8.29;96.68;99359.31;2016509;80;20330;-77
2021/11/14 06:41:24;;;;;;;0.64;0.64;;;;;;;8.27;96.73;99371.38;2013724;80;20396;-77
2021/11/14 06:44:26;;;;;;;1.75;0.69;;;;;;;8.27;96.75;99366.22;2014053;80;20322;-77
2021/11/14 06:47:29;;;;;;;3.51;0.79;;;;;;;8.26;96.73;99364.47;2015606;77;21771;-77
2021/11/14 06:50:32;;;;;;;1.08;1.08;;;;;;;8.24;96.63;99377.38;2019076;80;20463;-77
2021/11/14 06:53:35;;;;;;;3.58;1.59;;;;;;;8.24;96.59;99377.38;2022168;80;20826;-77
2021/11/14 06:56:37;;;;;;;1.63;1.52;;;;;;;8.24;96.53;99384.28;2018343;80;21171;-77
2021/11/14 06:59:40;;;;;;;4.03;2.20;;;;;;;8.23;96.51;99386.00;2018427;80;20334;-77
2021/11/14 07:02:42;;;;;;;1.89;1.54;;;;;;;8.23;96.55;99398.06;2010752;77;20943;-78
2021/11/14 07:05:45;;;;;;;1.36;1.09;;;;;;;8.22;96.51;99402.38;2012886;80;20861;-78
2021/11/14 07:08:48;;;;;;;1.36;0.90;;;;;;;8.23;96.45;99411.00;2013470;80;20396;-78
2021/11/14 07:11:53;;;;;;;0.91;0.90;;;;;;;8.22;96.40;99407.56;2015322;80;20368;-78
2021/11/14 07:14:56;;;;;;;1.09;1.00;;;;;;;8.19;96.23;99413.59;2015106;80;20894;-77
2021/11/14 07:17:59;;;;;;;0.80;0.80;;;;;;;8.17;96.18;99414.44;2013608;78;21310;-77
2021/11/14 07:21:02;;;;;;;1.33;0.80;;;;;;;8.15;96.11;99419.59;2015277;80;20390;-78
2021/11/14 07:24:05;;;;;;;0.95;0.93;;;;;;;8.16;96.15;99425.63;2014728;80;20395;-78
2021/11/14 07:27:08;;;;;;;0.81;0.80;;;;;;;8.15;96.09;99423.91;2015801;80;20314;-79
2021/11/14 07:30:13;;;;;;;0.70;0.70;;;;;;;8.16;96.07;99433.41;2018799;80;20357;-79
2021/11/14 07:33:16;;;;;;;1.39;0.80;;;;;;;8.18;96.01;99431.69;2019229;77;21244;-79
2021/11/14 07:36:18;;;;;;;1.19;1.01;;;;;;;8.16;96.02;99439.44;2027905;80;20316;-79
2021/11/14 07:39:21;;;;;;;1.19;1.08;;;;;;;8.18;95.98;99449.78;2027750;80;20901;-79
2021/11/14 07:42:24;;;;;;;1.24;1.14;;;;;;;8.19;96.13;99447.19;2030188;80;20516;-79
2021/11/14 07:45:31;;;;;;;2.86;1.65;;;;;;;8.25;96.19;99454.13;2025733;77;22420;-79
2021/11/14 07:48:33;;;;;;;1.58;1.31;;;;;;;8.30;96.19;99449.88;2027341;80;20804;-79
2021/11/14 07:51:36;;;;;;;1.41;1.27;;;;;;;8.31;96.18;99451.59;2027026;80;20732;-77
2021/11/14 07:54:39;;;;;;;2.55;1.73;;;;;;;8.35;96.13;99448.19;2026540;80;20412;-78
2021/11/14 07:57:43;;;;;;;2.99;2.46;;;;;;;8.39;96.07;99462.00;2026613;80;20497;-78
2021/11/14 08:00:46;;;;;;;4.88;3.14;;;;;;;8.40;96.04;99461.16;2025375;77;20825;-78
2021/11/14 08:03:52;;;;;;;4.47;3.85;;;;;;;8.39;95.81;99462.00;2027859;80;20328;-78
2021/11/14 08:06:56;;;;;;;6.38;5.46;;;;;;;8.38;95.80;99468.03;2026248;80;20345;-77
2021/11/14 08:09:59;;;;;;;5.82;4.97;;;;;;;8.38;95.85;99468.03;2027053;80;20315;-78
2021/11/14 08:13:02;;;;;;;5.70;4.59;;;;;;;8.38;95.86;99471.50;2026854;80;20365;-79
2021/11/14 08:16:05;;;;;;;6.96;5.34;;;;;;;8.41;95.93;99466.31;2025163;79;21046;-78
2021/11/14 08:19:08;;;;;;;8.52;6.38;;;;;;;8.42;95.84;99473.22;2027438;80;20316;-78
2021/11/14 08:22:11;;;;;;;8.07;7.28;;;;;;;8.44;95.92;99468.09;2025661;80;20377;-78
2021/11/14 08:25:15;;;;;;;5.29;4.43;;;;;;;8.50;95.89;99475.00;2026454;80;20381;-78
2021/11/14 08:28:18;;;;;;;4.05;3.42;;;;;;;8.52;95.84;99481.06;2025800;80;20311;-78
2021/11/14 08:31:21;;;;;;;3.54;3.09;;;;;;;8.61;95.90;99481.94;2025871;77;23963;-78
2021/11/14 08:34:24;;;;;;;2.71;2.51;;;;;;;8.70;95.83;99476.84;2029359;79;20500;-77
2021/11/14 08:37:27;;;;;;;3.89;2.61;;;;;;;8.79;95.59;99487.22;2028873;79;20380;-77
2021/11/14 08:40:32;;;;;;;2.31;2.11;;;;;;;8.86;95.23;99490.72;2028417;79;20387;-77
2021/11/14 08:43:37;;;;;;;1.79;1.60;;;;;;;8.86;94.84;99501.06;2028164;79;20307;-77
2021/11/14 08:46:39;;;;;;;3.17;2.06;;;;;;;8.88;94.49;99495.91;2027649;77;22588;-77
2021/11/14 08:49:43;;;;;;;2.78;1.88;;;;;;;8.83;94.10;99498.47;2031951;79;20467;-78
2021/11/14 08:52:46;;;;;;;2.00;1.63;;;;;;;8.83;94.06;99503.66;2030064;79;20372;-79
2021/11/14 08:55:56;;;;;;;2.83;1.63;;;;;;;8.87;94.06;99500.22;2030179;79;20334;-79
2021/11/14 08:59:04;;;;;;;1.94;1.73;;;;;;;8.93;93.95;99505.41;2029305;79;20330;-79
2021/11/14 09:02:06;;;;;;;1.48;1.38;;;;;;;8.99;93.54;99509.75;2028104;77;24481;-79
2021/11/14 09:05:09;;;;;;;2.22;1.94;;;;;;;9.05;93.44;99514.94;2029976;79;20436;-79
2021/11/14 09:08:38;;;;;;;2.03;1.84;;;;;;;9.10;93.36;99518.41;2028481;79;20888;-79
2021/11/14 09:11:44;;;;;;;2.28;2.08;;;;;;;9.15;93.08;99521.00;2021793;79;20334;-79
2021/11/14 09:14:47;;;;;;;3.03;1.65;;;;;;;9.12;92.77;99531.38;2031491;79;20354;-79
2021/11/14 09:18:00;;;;;;;2.59;1.70;;;;;;;9.16;93.02;99539.19;2019578;77;22552;-78
2021/11/14 09:21:04;;;;;;;1.79;1.69;;;;;;;9.19;92.75;99536.59;2024244;80;20790;-77
2021/11/14 09:24:07;;;;;;;2.66;1.76;;;;;;;9.20;92.62;99542.66;2024068;80;20182;-77
2021/11/14 09:27:10;;;;;;;5.26;3.20;;;;;;;9.19;92.53;99536.59;2024037;80;20304;-77
2021/11/14 09:30:12;;;;;;;5.18;3.96;;;;;;;9.17;92.47;99542.63;2022841;80;20336;-78
2021/11/14 09:33:20;;;;;;;3.56;2.49;;;;;;;9.16;92.39;99546.09;2022127;77;21486;-78
2021/11/14 09:36:22;;;;;;;2.79;2.33;;;;;;;9.15;92.37;99547.78;2023260;80;20369;-77
2021/11/14 09:39:25;;;;;;;2.45;2.00;;;;;;;9.15;92.19;99558.16;2022669;80;20312;-78
2021/11/14 09:42:29;;;;;;;1.60;1.50;;;;;;;9.13;92.11;99557.28;2024117;80;20344;-79
2021/11/14 09:45:34;;;;;;;1.34;1.24;;;;;;;9.12;92.12;99554.69;2022924;77;22189;-79
2021/11/14 09:48:36;;;;;;;1.66;1.56;;;;;;;9.16;92.20;99556.44;2024163;80;20430;-79
2021/11/14 09:51:39;;;;;;;1.46;1.36;;;;;;;9.17;92.29;99572.00;2026958;80;20412;-78
2021/11/14 09:54:43;;;;;;;1.77;1.34;;;;;;;9.22;92.34;99566.81;2024947;80;20373;-79
2021/11/14 09:57:47;;;;;;;1.38;1.08;;;;;;;9.26;92.35;99564.25;2024580;80;20899;-78
2021/11/14 10:00:51;;;;;;;0.86;0.81;;;;;;;9.31;92.43;99567.72;2024577;77;21369;-79
2021/11/14 10:03:53;;;;;;;1.36;1.26;;;;;;;9.34;92.26;99570.34;2031008;79;20332;-79
2021/11/14 10:07:07;;;;;;;1.20;1.10;;;;;;;9.39;92.26;99558.25;2030299;79;20372;-79
2021/11/14 10:10:11;;;;;;;4.78;3.72;;;;;;;9.49;92.20;99566.91;2029897;80;20344;-78
2021/11/14 10:13:36;;;;;;;1.60;1.50;;;;;;;9.55;92.02;99563.47;2030159;80;20319;-79
2021/11/14 10:16:39;;;;;;;1.25;1.15;;;;;;;9.55;91.59;99566.94;2023186;76;23932;-79
2021/11/14 10:19:42;;;;;;;1.39;1.29;;;;;;;9.58;91.30;99563.47;2019848;80;20219;-79
2021/11/14 10:22:48;;;;;;;1.19;1.11;;;;;;;9.64;91.36;99572.13;2023742;80;20191;-79
2021/11/14 10:25:56;;;;;;;;;;;;;;;9.66;90.91;99569.53;2016939;80;20277;-78
2021/11/14 10:29:10;;;;;;;2.50;1.70;;;;;;;9.68;90.63;99571.25;2020882;80;20077;-79
2021/11/14 10:32:16;;;;;;;2.35;2.00;;;;;;;9.70;90.26;99563.53;2024953;77;24595;-79
2021/11/14 10:35:25;;;;;;;6.88;3.83;;;;;;;9.76;90.39;99573.03;2029729;80;20776;-79
2021/11/14 10:38:31;;;;;;;8.09;3.78;;;;;;;9.82;90.35;99563.50;2030851;79;20182;-79
2021/11/14 10:41:41;;;;;;;3.88;1.74;;;;;;;9.88;90.19;99573.06;2026065;80;20307;-79
2021/11/14 10:44:46;;;;;;;1.52;1.42;;;;;;;9.96;89.89;99573.91;2030630;80;20199;-79
2021/11/14 10:47:58;;;;;;;1.39;1.29;;;;;;;10.07;89.92;99577.41;2023690;77;21710;-79
2021/11/14 10:51:02;;;;;;;1.44;1.19;;;;;;;10.12;89.47;99567.88;2025932;80;20185;-79
2021/11/14 10:54:07;;;;;;;0.93;0.93;;;;;;;10.14;88.63;99576.53;2025601;80;20192;-79
2021/11/14 10:57:09;;;;;;;1.00;1.00;;;;;;;10.16;88.11;99579.97;2024941;80;20204;-78
2021/11/14 11:00:13;;;;;;;1.00;1.00;;;;;;;10.17;88.03;99580.84;2023129;79;21135;-79
2021/11/14 11:03:16;;;;;;;1.24;1.24;;;;;;;10.18;87.87;99575.66;2025481;77;23735;-79
2021/11/14 11:06:18;;;;;;;1.45;1.35;;;;;;;10.18;87.53;99575.66;2025322;80;20296;-79
2021/11/14 11:09:32;;;;;;;1.63;1.52;;;;;;;10.19;87.70;99579.97;2026685;80;20338;-79
2021/11/14 11:12:35;;;;;;;1.50;1.40;;;;;;;10.25;87.81;99580.03;2022954;80;20171;-80
2021/11/14 11:15:46;;;;;;;2.56;2.36;;;;;;;10.26;87.54;99584.34;2025504;77;24448;-79
2021/11/14 11:18:58;;;;;;;1.98;1.77;;;;;;;10.27;87.25;99573.09;2025921;80;20621;-79
2021/11/14 11:22:03;;;;;;;2.42;2.20;;;;;;;10.37;87.42;99586.06;2026868;80;20264;-79
2021/11/14 11:25:05;;;;;;;2.28;2.08;;;;;;;10.38;86.97;99578.25;2027424;80;20627;-79
2021/11/14 11:28:21;;;;;;;2.70;2.50;;;;;;;10.45;87.00;99580.00;2027485;80;20182;-80
2021/11/14 11:31:23;;;;;;;4.72;3.79;;;;;;;10.55;87.36;99575.66;2024574;77;24039;-80
2021/11/14 11:34:27;;;;;;;3.83;3.35;;;;;;;10.59;86.29;99579.97;2025851;80;21080;-80
2021/11/14 11:37:29;;;;;;;5.06;3.11;;;;;;;10.69;86.15;99580.84;2024332;80;20191;-79
2021/11/14 11:40:33;;;;;;;7.22;4.95;;;;;;;10.79;86.11;99579.97;2025336;80;20255;-79
2021/11/14 11:43:36;;;;;;;4.64;3.55;;;;;;;10.90;86.07;99583.38;2025417;80;20209;-80
2021/11/14 11:46:42;;;;;;;5.00;3.14;;;;;;;11.00;85.84;99579.91;2023926;77;21750;-80
2021/11/14 11:50:07;;;;;;;5.82;4.51;;;;;;;11.15;85.40;99576.38;2026069;80;20285;-80
2021/11/14 11:53:22;;;;;;;3.64;2.83;;;;;;;11.29;84.72;99586.69;2026028;80;20270;-80
2021/11/14 11:56:50;;;;;;;2.17;1.98;;;;;;;11.35;83.53;99591.91;2025612;80;20491;-80
2021/11/14 12:00:02;;;;;;;2.29;2.11;;;;;;;11.40;83.29;99577.13;2023519;80;20251;-80
2021/11/14 12:03:38;;;;;;;3.59;2.58;;;;;;;11.41;82.94;99584.94;2025357;77;27490;-80
2021/11/14 12:06:47;;;;;;;4.28;2.47;;;;;;;11.36;82.63;99586.69;2025180;80;20244;-81
2021/11/14 12:09:54;;;;;;;10.55;5.40;;;;;;;11.35;82.62;99592.75;2026269;80;20200;-79
2021/11/14 12:13:03;;;;;;;5.75;4.20;;;;;;;11.33;82.95;99591.03;2025163;80;20200;-80
2021/11/14 12:16:06;;;;;;;7.35;4.29;;;;;;;11.26;82.67;99592.78;2024402;79;21333;-80
2021/11/14 12:19:20;;;;;;;6.93;4.93;;;;;;;11.17;82.46;99600.63;2023655;79;20724;-81
2021/11/14 12:22:23;;;;;;;4.97;4.19;;;;;;;11.06;82.56;99599.78;2032028;79;20202;-81
2021/11/14 12:25:38;;;;;;;4.56;4.05;;;;;;;10.96;82.63;99611.97;2024729;79;20206;-81
2021/11/14 12:28:43;;;;;;;5.96;4.61;;;;;;;10.85;82.80;99613.69;2031515;79;20330;-81
2021/11/14 12:31:52;;;;;;;11.69;6.44;;;;;;;10.80;83.16;99610.25;2030681;79;20204;-81
2021/11/14 12:35:06;;;;;;;4.71;4.31;;;;;;;10.71;83.20;99613.72;2019927;79;20190;-80
2021/11/14 12:38:13;;;;;;;4.21;3.84;;;;;;;10.68;83.53;99611.13;2019576;79;20182;-80
2021/11/14 12:41:16;;;;;;;4.44;4.04;;;;;;;10.67;83.83;99612.00;2027838;79;20222;-80
2021/11/14 12:44:36;;;;;;;4.14;3.84;;;;;;;10.66;84.03;99614.59;2030567;79;20212;-80
2021/11/14 12:47:46;;;;;;;3.86;3.53;;;;;;;10.67;84.06;99614.59;2029727;79;20166;-80
2021/11/14 12:51:01;;;;;;;3.69;3.29;;;;;;;10.64;83.91;99626.72;2028208;79;20206;-80
2021/11/14 12:54:13;;;;;;;3.31;3.01;;;;;;;10.64;84.10;99625.00;2034472;79;20225;-80
2021/11/14 12:57:18;;;;;;;2.96;2.74;;;;;;;10.64;84.11;99617.19;2031202;79;20175;-81
2021/11/14 13:00:33;;;;;;;2.92;2.72;;;;;;;10.62;83.64;99620.69;2031314;79;20166;-80
2021/11/14 13:03:37;;;;;;;3.35;2.60;;;;;;;10.63;83.47;99620.66;2020522;79;20237;-80
2021/11/14 13:06:40;;;;;;;5.06;3.60;;;;;;;10.64;83.60;99625.00;2031473;79;20162;-79
2021/11/14 13:09:47;;;;;;;4.21;3.22;;;;;;;10.66;83.83;99625.84;2029957;79;20191;-79
2021/11/14 13:12:51;;;;;;;3.67;3.38;;;;;;;10.69;83.70;99632.78;2030906;79;20224;-79
2021/11/14 13:16:01;;;;;;;3.51;3.21;;;;;;;10.71;83.59;99628.44;2026761;77;26360;-79
2021/11/14 13:19:06;;;;;;;3.09;2.85;;;;;;;10.72;83.09;99640.56;2023522;80;20201;-79
2021/11/14 13:22:09;;;;;;;2.79;2.59;;;;;;;10.71;82.84;99631.91;2019789;80;20210;-78
2021/11/14 13:25:13;;;;;;;3.14;2.86;;;;;;;10.70;82.71;99637.09;2022569;80;20190;-77
2021/11/14 13:28:16;;;;;;;2.99;2.79;;;;;;;10.69;82.82;99637.97;2022319;80;20179;-78
2021/11/14 13:31:22;;;;;;;3.30;3.00;;;;;;;10.65;82.60;99626.72;2021503;77;20598;-78
2021/11/14 13:34:29;;;;;;;3.09;2.86;;;;;;;10.63;82.64;99636.25;2022616;80;20531;-77
2021/11/14 13:37:35;;;;;;;2.66;2.46;;;;;;;10.64;83.00;99640.56;2022709;80;20190;-77
2021/11/14 13:40:38;;;;;;;3.38;3.08;;;;;;;10.64;83.32;99637.13;2023361;80;20218;-77
2021/11/14 13:43:52;;;;;;;5.70;3.46;;;;;;;10.60;83.05;99638.84;2023465;80;20199;-77
2021/11/14 13:47:04;;;;;;;2.89;2.69;;;;;;;10.61;83.01;99632.78;2021717;77;20865;-78
2021/11/14 13:50:10;;;;;;;2.71;2.38;;;;;;;10.58;82.47;99637.97;2026333;80;20198;-77
2021/11/14 13:53:20;;;;;;;2.65;2.45;;;;;;;10.57;82.68;99638.81;2023197;80;20340;-77
2021/11/14 13:56:23;;;;;;;3.16;2.96;;;;;;;10.53;82.77;99640.56;2022562;80;20228;-77
2021/11/14 13:59:26;;;;;;;3.83;2.90;;;;;;;10.47;82.98;99642.31;2023086;80;20360;-77
2021/11/14 14:02:31;;;;;;;3.34;3.01;;;;;;;10.41;83.22;99647.47;2025374;77;23187;-77
2021/11/14 14:05:37;;;;;;;3.15;2.94;;;;;;;10.37;83.52;99649.22;2028529;79;20281;-77
2021/11/14 14:08:41;;;;;;;2.76;2.58;;;;;;;10.36;83.40;99651.81;2027623;79;20276;-77
2021/11/14 14:11:44;;;;;;;3.40;3.20;;;;;;;10.33;83.56;99663.06;2027152;80;20185;-77
2021/11/14 14:14:49;;;;;;;3.14;2.94;;;;;;;10.29;83.61;99659.59;2026774;80;20570;-77
2021/11/14 14:17:57;;;;;;;3.04;2.84;;;;;;;10.24;83.53;99669.13;2024745;77;20630;-77
2021/11/14 14:21:03;;;;;;;3.03;2.83;;;;;;;10.21;83.62;99663.91;2026723;80;20663;-77
2021/11/14 14:24:06;;;;;;;4.15;2.94;;;;;;;10.17;83.69;99672.53;2026346;80;20635;-77
2021/11/14 14:27:21;;;;;;;2.75;2.58;;;;;;;10.17;83.91;99675.13;2026316;80;20337;-77
2021/11/14 14:30:27;;;;;;;2.96;2.76;;;;;;;10.15;84.04;99678.56;2025479;77;21439;-77
2021/11/14 14:33:32;;;;;;;3.06;2.86;;;;;;;10.13;83.98;99686.34;2026342;80;20251;-77
2021/11/14 14:36:36;;;;;;;3.91;3.61;;;;;;;10.09;83.70;99688.94;2026934;79;20526;-78
2021/11/14 14:39:41;;;;;;;3.67;3.47;;;;;;;10.05;83.62;99694.97;2027919;79;20183;-77